sensor_id;sensor_type;location;lat;lon;timestamp;P1;durP1;ratioP1;P2;durP2;ratioP2
64375;SDS011;50700;55.416;12.952;2023-04-06T00:02:03;2.60;;;1.67;;
64375;SDS011;50700;55.416;12.952;2023-04-06T00:04:29;4.00;;;2.00;;
64375;SDS011;50700;55.416;12.952;2023-04-06T00:06:55;3.67;;;2.50;;
64375;SDS011;50700;55.416;12.952;2023-04-06T00:09:22;10.02;;;3.00;;
64375;SDS011;50700;55.416;12.952;2023-04-06T00:11:48;5.20;;;3.30;;
64375;SDS011;50700;55.416;12.952;2023-04-06T00:14:14;4.90;;;3.28;;
64375;SDS011;50700;55.416;12.952;2023-04-06T00:16:42;6.68;;;3.85;;
64375;SDS011;50700;55.416;12.952;2023-04-06T00:19:08;8.02;;;3.70;;
64375;SDS011;50700;55.416;12.952;2023-04-06T00:21:35;5.88;;;3.47;;
64375;SDS011;50700;55.416;12.952;2023-04-06T00:24:01;6.43;;;3.63;;
64375;SDS011;50700;55.416;12.952;2023-04-06T00:26:29;5.38;;;3.42;;
64375;SDS011;50700;55.416;12.952;2023-04-06T00:28:55;8.15;;;3.28;;
64375;SDS011;50700;55.416;12.952;2023-04-06T00:31:21;9.10;;;3.95;;
64375;SDS011;50700;55.416;12.952;2023-04-06T00:33:48;8.23;;;4.15;;
64375;SDS011;50700;55.416;12.952;2023-04-06T00:36:15;7.35;;;3.95;;
64375;SDS011;50700;55.416;12.952;2023-04-06T00:38:41;6.97;;;3.88;;
64375;SDS011;50700;55.416;12.952;2023-04-06T00:41:07;6.97;;;4.32;;
64375;SDS011;50700;55.416;12.952;2023-04-06T00:43:33;8.20;;;4.45;;
64375;SDS011;50700;55.416;12.952;2023-04-06T00:45:59;6.43;;;4.05;;
64375;SDS011;50700;55.416;12.952;2023-04-06T00:48:25;7.65;;;3.78;;
64375;SDS011;50700;55.416;12.952;2023-04-06T00:50:52;6.35;;;3.83;;
64375;SDS011;50700;55.416;12.952;2023-04-06T00:53:18;6.63;;;4.30;;
64375;SDS011;50700;55.416;12.952;2023-04-06T00:55:44;7.90;;;3.75;;
64375;SDS011;50700;55.416;12.952;2023-04-06T00:58:10;9.13;;;4.38;;
64375;SDS011;50700;55.416;12.952;2023-04-06T01:00:37;7.53;;;4.32;;
64375;SDS011;50700;55.416;12.952;2023-04-06T01:03:03;6.90;;;4.25;;
64375;SDS011;50700;55.416;12.952;2023-04-06T01:05:33;7.15;;;4.22;;
64375;SDS011;50700;55.416;12.952;2023-04-06T01:07:59;6.50;;;3.58;;
64375;SDS011;50700;55.416;12.952;2023-04-06T01:10:26;7.47;;;4.22;;
64375;SDS011;50700;55.416;12.952;2023-04-06T01:12:53;9.98;;;4.25;;
64375;SDS011;50700;55.416;12.952;2023-04-06T01:15:19;8.45;;;4.60;;
64375;SDS011;50700;55.416;12.952;2023-04-06T01:17:46;10.07;;;4.72;;
64375;SDS011;50700;55.416;12.952;2023-04-06T01:20:12;10.10;;;4.55;;
64375;SDS011;50700;55.416;12.952;2023-04-06T01:22:39;7.32;;;4.35;;
64375;SDS011;50700;55.416;12.952;2023-04-06T01:25:05;9.43;;;4.65;;
64375;SDS011;50700;55.416;12.952;2023-04-06T01:27:32;8.00;;;4.13;;
64375;SDS011;50700;55.416;12.952;2023-04-06T01:29:58;10.55;;;4.97;;
64375;SDS011;50700;55.416;12.952;2023-04-06T01:32:24;6.32;;;4.00;;
64375;SDS011;50700;55.416;12.952;2023-04-06T01:34:50;5.13;;;3.45;;
64375;SDS011;50700;55.416;12.952;2023-04-06T01:37:17;5.68;;;3.55;;
64375;SDS011;50700;55.416;12.952;2023-04-06T01:39:43;6.22;;;3.85;;
64375;SDS011;50700;55.416;12.952;2023-04-06T01:42:10;5.78;;;3.83;;
64375;SDS011;50700;55.416;12.952;2023-04-06T01:44:36;7.03;;;3.45;;
64375;SDS011;50700;55.416;12.952;2023-04-06T01:47:02;9.25;;;3.50;;
64375;SDS011;50700;55.416;12.952;2023-04-06T01:49:29;8.02;;;3.80;;
64375;SDS011;50700;55.416;12.952;2023-04-06T01:51:55;7.90;;;3.50;;
64375;SDS011;50700;55.416;12.952;2023-04-06T01:54:21;6.70;;;3.28;;
64375;SDS011;50700;55.416;12.952;2023-04-06T01:56:47;8.88;;;3.80;;
64375;SDS011;50700;55.416;12.952;2023-04-06T01:59:15;6.63;;;3.25;;
64375;SDS011;50700;55.416;12.952;2023-04-06T02:01:42;10.95;;;4.50;;
64375;SDS011;50700;55.416;12.952;2023-04-06T02:04:08;6.75;;;4.00;;
64375;SDS011;50700;55.416;12.952;2023-04-06T02:06:34;10.43;;;4.75;;
64375;SDS011;50700;55.416;12.952;2023-04-06T02:09:00;9.23;;;4.72;;
64375;SDS011;50700;55.416;12.952;2023-04-06T02:11:26;9.98;;;4.32;;
64375;SDS011;50700;55.416;12.952;2023-04-06T02:13:53;11.93;;;4.43;;
64375;SDS011;50700;55.416;12.952;2023-04-06T02:16:19;9.32;;;4.20;;
64375;SDS011;50700;55.416;12.952;2023-04-06T02:18:45;6.80;;;3.90;;
64375;SDS011;50700;55.416;12.952;2023-04-06T02:21:11;6.05;;;3.50;;
64375;SDS011;50700;55.416;12.952;2023-04-06T02:23:38;6.75;;;3.63;;
64375;SDS011;50700;55.416;12.952;2023-04-06T02:26:04;6.65;;;3.33;;
64375;SDS011;50700;55.416;12.952;2023-04-06T02:28:30;5.15;;;3.08;;
64375;SDS011;50700;55.416;12.952;2023-04-06T02:30:56;6.70;;;2.88;;
64375;SDS011;50700;55.416;12.952;2023-04-06T02:33:22;5.72;;;2.67;;
64375;SDS011;50700;55.416;12.952;2023-04-06T02:35:48;4.03;;;2.67;;
64375;SDS011;50700;55.416;12.952;2023-04-06T02:38:14;6.80;;;3.10;;
64375;SDS011;50700;55.416;12.952;2023-04-06T02:40:41;5.18;;;3.15;;
64375;SDS011;50700;55.416;12.952;2023-04-06T02:43:07;5.38;;;3.03;;
64375;SDS011;50700;55.416;12.952;2023-04-06T02:45:33;6.45;;;3.05;;
64375;SDS011;50700;55.416;12.952;2023-04-06T02:47:59;4.28;;;2.85;;
64375;SDS011;50700;55.416;12.952;2023-04-06T02:50:25;4.28;;;2.53;;
64375;SDS011;50700;55.416;12.952;2023-04-06T02:52:52;6.68;;;2.80;;
64375;SDS011;50700;55.416;12.952;2023-04-06T02:55:18;3.58;;;2.20;;
64375;SDS011;50700;55.416;12.952;2023-04-06T02:57:45;3.63;;;2.17;;
64375;SDS011;50700;55.416;12.952;2023-04-06T03:00:11;3.90;;;1.65;;
64375;SDS011;50700;55.416;12.952;2023-04-06T03:02:37;5.38;;;2.03;;
64375;SDS011;50700;55.416;12.952;2023-04-06T03:05:04;3.45;;;2.03;;
64375;SDS011;50700;55.416;12.952;2023-04-06T03:07:30;3.58;;;2.33;;
64375;SDS011;50700;55.416;12.952;2023-04-06T03:09:57;4.75;;;1.83;;
64375;SDS011;50700;55.416;12.952;2023-04-06T03:12:23;3.95;;;1.75;;
64375;SDS011;50700;55.416;12.952;2023-04-06T03:14:49;3.40;;;1.92;;
64375;SDS011;50700;55.416;12.952;2023-04-06T03:17:15;3.65;;;1.92;;
64375;SDS011;50700;55.416;12.952;2023-04-06T03:19:41;4.43;;;2.50;;
64375;SDS011;50700;55.416;12.952;2023-04-06T03:22:08;3.88;;;2.10;;
64375;SDS011;50700;55.416;12.952;2023-04-06T03:24:34;4.93;;;2.13;;
64375;SDS011;50700;55.416;12.952;2023-04-06T03:27:00;2.75;;;2.35;;
64375;SDS011;50700;55.416;12.952;2023-04-06T03:29:26;4.05;;;2.10;;
64375;SDS011;50700;55.416;12.952;2023-04-06T03:31:52;3.75;;;2.17;;
64375;SDS011;50700;55.416;12.952;2023-04-06T03:34:19;4.63;;;2.25;;
64375;SDS011;50700;55.416;12.952;2023-04-06T03:36:45;5.70;;;2.47;;
64375;SDS011;50700;55.416;12.952;2023-04-06T03:39:11;4.22;;;2.10;;
64375;SDS011;50700;55.416;12.952;2023-04-06T03:41:37;3.97;;;2.10;;
64375;SDS011;50700;55.416;12.952;2023-04-06T03:44:05;5.85;;;2.60;;
64375;SDS011;50700;55.416;12.952;2023-04-06T03:46:31;3.17;;;2.15;;
64375;SDS011;50700;55.416;12.952;2023-04-06T03:48:57;4.70;;;2.50;;
64375;SDS011;50700;55.416;12.952;2023-04-06T03:51:23;4.22;;;2.38;;
64375;SDS011;50700;55.416;12.952;2023-04-06T03:53:50;4.38;;;2.35;;
64375;SDS011;50700;55.416;12.952;2023-04-06T03:56:16;3.38;;;2.40;;
64375;SDS011;50700;55.416;12.952;2023-04-06T03:58:42;6.10;;;2.50;;
64375;SDS011;50700;55.416;12.952;2023-04-06T04:01:10;4.60;;;2.40;;
64375;SDS011;50700;55.416;12.952;2023-04-06T04:03:36;5.82;;;2.55;;
64375;SDS011;50700;55.416;12.952;2023-04-06T04:06:02;3.85;;;2.00;;
64375;SDS011;50700;55.416;12.952;2023-04-06T04:08:29;3.80;;;1.98;;
64375;SDS011;50700;55.416;12.952;2023-04-06T04:10:55;2.65;;;1.88;;
64375;SDS011;50700;55.416;12.952;2023-04-06T04:13:21;2.80;;;1.92;;
64375;SDS011;50700;55.416;12.952;2023-04-06T04:15:47;3.88;;;1.58;;
64375;SDS011;50700;55.416;12.952;2023-04-06T04:18:13;4.60;;;1.70;;
64375;SDS011;50700;55.416;12.952;2023-04-06T04:20:40;3.47;;;1.70;;
64375;SDS011;50700;55.416;12.952;2023-04-06T04:23:06;2.42;;;1.55;;
64375;SDS011;50700;55.416;12.952;2023-04-06T04:25:32;5.38;;;1.70;;
64375;SDS011;50700;55.416;12.952;2023-04-06T04:27:58;5.25;;;2.10;;
64375;SDS011;50700;55.416;12.952;2023-04-06T04:30:24;7.00;;;1.90;;
64375;SDS011;50700;55.416;12.952;2023-04-06T04:32:50;3.33;;;1.55;;
64375;SDS011;50700;55.416;12.952;2023-04-06T04:35:17;4.90;;;1.88;;
64375;SDS011;50700;55.416;12.952;2023-04-06T04:37:43;3.90;;;1.48;;
64375;SDS011;50700;55.416;12.952;2023-04-06T04:40:09;4.10;;;1.80;;
64375;SDS011;50700;55.416;12.952;2023-04-06T04:42:36;4.65;;;1.60;;
64375;SDS011;50700;55.416;12.952;2023-04-06T04:45:02;3.70;;;1.15;;
64375;SDS011;50700;55.416;12.952;2023-04-06T04:47:28;3.35;;;1.38;;
64375;SDS011;50700;55.416;12.952;2023-04-06T04:49:54;2.42;;;1.60;;
64375;SDS011;50700;55.416;12.952;2023-04-06T04:52:20;4.70;;;1.42;;
64375;SDS011;50700;55.416;12.952;2023-04-06T04:54:47;2.85;;;1.50;;
64375;SDS011;50700;55.416;12.952;2023-04-06T04:57:13;2.00;;;1.45;;
64375;SDS011;50700;55.416;12.952;2023-04-06T04:59:39;2.22;;;1.27;;
64375;SDS011;50700;55.416;12.952;2023-04-06T05:02:07;2.05;;;1.35;;
64375;SDS011;50700;55.416;12.952;2023-04-06T05:04:33;2.67;;;1.33;;
64375;SDS011;50700;55.416;12.952;2023-04-06T05:07:05;1.98;;;1.05;;
64375;SDS011;50700;55.416;12.952;2023-04-06T05:09:32;3.17;;;1.65;;
64375;SDS011;50700;55.416;12.952;2023-04-06T05:11:58;1.85;;;1.60;;
64375;SDS011;50700;55.416;12.952;2023-04-06T05:14:25;1.88;;;1.30;;
64375;SDS011;50700;55.416;12.952;2023-04-06T05:16:52;1.95;;;1.35;;
64375;SDS011;50700;55.416;12.952;2023-04-06T05:19:18;3.17;;;1.58;;
64375;SDS011;50700;55.416;12.952;2023-04-06T05:21:44;1.83;;;1.35;;
64375;SDS011;50700;55.416;12.952;2023-04-06T05:24:11;2.47;;;1.20;;
64375;SDS011;50700;55.416;12.952;2023-04-06T05:26:37;2.63;;;1.27;;
64375;SDS011;50700;55.416;12.952;2023-04-06T05:29:03;2.00;;;1.55;;
64375;SDS011;50700;55.416;12.952;2023-04-06T05:31:29;2.88;;;1.73;;
64375;SDS011;50700;55.416;12.952;2023-04-06T05:33:56;4.68;;;1.42;;
64375;SDS011;50700;55.416;12.952;2023-04-06T05:36:22;3.20;;;1.50;;
64375;SDS011;50700;55.416;12.952;2023-04-06T05:38:48;4.10;;;1.85;;
64375;SDS011;50700;55.416;12.952;2023-04-06T05:41:15;4.03;;;1.70;;
64375;SDS011;50700;55.416;12.952;2023-04-06T05:43:41;5.43;;;1.90;;
64375;SDS011;50700;55.416;12.952;2023-04-06T05:46:07;1.10;;;1.08;;
64375;SDS011;50700;55.416;12.952;2023-04-06T05:48:34;4.38;;;2.55;;
64375;SDS011;50700;55.416;12.952;2023-04-06T05:51:00;5.22;;;1.77;;
64375;SDS011;50700;55.416;12.952;2023-04-06T05:53:27;3.08;;;1.58;;
64375;SDS011;50700;55.416;12.952;2023-04-06T05:55:54;2.63;;;1.35;;
64375;SDS011;50700;55.416;12.952;2023-04-06T05:58:20;3.05;;;1.45;;
64375;SDS011;50700;55.416;12.952;2023-04-06T06:00:47;4.45;;;1.50;;
64375;SDS011;50700;55.416;12.952;2023-04-06T06:03:13;3.67;;;1.58;;
64375;SDS011;50700;55.416;12.952;2023-04-06T06:05:40;4.13;;;1.60;;
64375;SDS011;50700;55.416;12.952;2023-04-06T06:08:07;7.53;;;1.63;;
64375;SDS011;50700;55.416;12.952;2023-04-06T06:10:33;2.75;;;1.50;;
64375;SDS011;50700;55.416;12.952;2023-04-06T06:12:59;5.47;;;1.63;;
64375;SDS011;50700;55.416;12.952;2023-04-06T06:15:25;2.10;;;1.33;;
64375;SDS011;50700;55.416;12.952;2023-04-06T06:17:52;2.58;;;1.50;;
64375;SDS011;50700;55.416;12.952;2023-04-06T06:20:18;1.95;;;1.30;;
64375;SDS011;50700;55.416;12.952;2023-04-06T06:22:44;5.95;;;1.55;;
64375;SDS011;50700;55.416;12.952;2023-04-06T06:25:10;1.67;;;1.13;;
64375;SDS011;50700;55.416;12.952;2023-04-06T06:27:36;2.83;;;1.30;;
64375;SDS011;50700;55.416;12.952;2023-04-06T06:30:03;3.10;;;1.50;;
64375;SDS011;50700;55.416;12.952;2023-04-06T06:32:29;2.97;;;1.00;;
64375;SDS011;50700;55.416;12.952;2023-04-06T06:34:55;5.72;;;1.77;;
64375;SDS011;50700;55.416;12.952;2023-04-06T06:37:21;6.95;;;1.60;;
64375;SDS011;50700;55.416;12.952;2023-04-06T06:39:47;2.45;;;1.63;;
64375;SDS011;50700;55.416;12.952;2023-04-06T06:42:14;3.80;;;1.45;;
64375;SDS011;50700;55.416;12.952;2023-04-06T06:44:40;2.50;;;1.50;;
64375;SDS011;50700;55.416;12.952;2023-04-06T06:47:06;2.83;;;1.23;;
64375;SDS011;50700;55.416;12.952;2023-04-06T06:49:32;6.60;;;1.67;;
64375;SDS011;50700;55.416;12.952;2023-04-06T06:51:58;1.35;;;1.20;;
64375;SDS011;50700;55.416;12.952;2023-04-06T06:54:24;3.30;;;1.77;;
64375;SDS011;50700;55.416;12.952;2023-04-06T06:56:50;2.00;;;1.42;;
64375;SDS011;50700;55.416;12.952;2023-04-06T06:59:17;3.30;;;1.10;;
64375;SDS011;50700;55.416;12.952;2023-04-06T07:01:43;3.92;;;1.45;;
64375;SDS011;50700;55.416;12.952;2023-04-06T07:04:09;2.67;;;1.40;;
64375;SDS011;50700;55.416;12.952;2023-04-06T07:06:36;3.05;;;1.40;;
64375;SDS011;50700;55.416;12.952;2023-04-06T07:09:02;2.60;;;1.40;;
64375;SDS011;50700;55.416;12.952;2023-04-06T07:11:28;3.90;;;1.60;;
64375;SDS011;50700;55.416;12.952;2023-04-06T07:13:55;3.40;;;1.65;;
64375;SDS011;50700;55.416;12.952;2023-04-06T07:16:21;1.38;;;1.10;;
64375;SDS011;50700;55.416;12.952;2023-04-06T07:18:48;3.03;;;2.03;;
64375;SDS011;50700;55.416;12.952;2023-04-06T07:21:14;6.70;;;1.58;;
64375;SDS011;50700;55.416;12.952;2023-04-06T07:23:41;2.08;;;1.45;;
64375;SDS011;50700;55.416;12.952;2023-04-06T07:26:07;3.30;;;1.30;;
64375;SDS011;50700;55.416;12.952;2023-04-06T07:28:33;3.03;;;1.00;;
64375;SDS011;50700;55.416;12.952;2023-04-06T07:30:59;2.85;;;1.35;;
64375;SDS011;50700;55.416;12.952;2023-04-06T07:33:25;2.83;;;1.38;;
64375;SDS011;50700;55.416;12.952;2023-04-06T07:35:55;1.33;;;1.08;;
64375;SDS011;50700;55.416;12.952;2023-04-06T07:38:22;4.57;;;1.55;;
64375;SDS011;50700;55.416;12.952;2023-04-06T07:40:48;2.17;;;1.20;;
64375;SDS011;50700;55.416;12.952;2023-04-06T07:43:14;1.33;;;1.08;;
64375;SDS011;50700;55.416;12.952;2023-04-06T07:45:41;4.90;;;1.40;;
64375;SDS011;50700;55.416;12.952;2023-04-06T07:48:07;5.03;;;1.40;;
64375;SDS011;50700;55.416;12.952;2023-04-06T07:50:34;5.75;;;1.30;;
64375;SDS011;50700;55.416;12.952;2023-04-06T07:53:00;1.58;;;1.00;;
64375;SDS011;50700;55.416;12.952;2023-04-06T07:55:26;0.98;;;0.90;;
64375;SDS011;50700;55.416;12.952;2023-04-06T07:57:52;2.80;;;1.20;;
64375;SDS011;50700;55.416;12.952;2023-04-06T08:00:19;3.50;;;1.20;;
64375;SDS011;50700;55.416;12.952;2023-04-06T08:02:45;3.67;;;1.10;;
64375;SDS011;50700;55.416;12.952;2023-04-06T08:05:11;2.92;;;1.20;;
64375;SDS011;50700;55.416;12.952;2023-04-06T08:07:37;2.42;;;1.40;;
64375;SDS011;50700;55.416;12.952;2023-04-06T08:10:03;1.80;;;1.10;;
64375;SDS011;50700;55.416;12.952;2023-04-06T08:12:30;4.13;;;1.27;;
64375;SDS011;50700;55.416;12.952;2023-04-06T08:14:56;2.25;;;1.30;;
64375;SDS011;50700;55.416;12.952;2023-04-06T08:17:22;1.95;;;1.50;;
64375;SDS011;50700;55.416;12.952;2023-04-06T08:19:48;3.25;;;1.52;;
64375;SDS011;50700;55.416;12.952;2023-04-06T08:22:14;8.55;;;2.15;;
64375;SDS011;50700;55.416;12.952;2023-04-06T08:24:41;3.67;;;1.80;;
64375;SDS011;50700;55.416;12.952;2023-04-06T08:27:07;2.50;;;1.30;;
64375;SDS011;50700;55.416;12.952;2023-04-06T08:29:33;4.45;;;1.60;;
64375;SDS011;50700;55.416;12.952;2023-04-06T08:31:59;2.17;;;1.58;;
64375;SDS011;50700;55.416;12.952;2023-04-06T08:34:30;2.10;;;1.58;;
64375;SDS011;50700;55.416;12.952;2023-04-06T08:36:57;5.05;;;2.03;;
64375;SDS011;50700;55.416;12.952;2023-04-06T08:39:23;2.78;;;1.67;;
64375;SDS011;50700;55.416;12.952;2023-04-06T08:41:51;4.97;;;1.70;;
64375;SDS011;50700;55.416;12.952;2023-04-06T08:44:17;7.05;;;2.47;;
64375;SDS011;50700;55.416;12.952;2023-04-06T08:46:44;3.42;;;1.80;;
64375;SDS011;50700;55.416;12.952;2023-04-06T08:49:10;2.78;;;1.98;;
64375;SDS011;50700;55.416;12.952;2023-04-06T08:51:36;3.53;;;2.03;;
64375;SDS011;50700;55.416;12.952;2023-04-06T08:54:03;3.47;;;2.20;;
64375;SDS011;50700;55.416;12.952;2023-04-06T08:56:29;5.03;;;2.13;;
64375;SDS011;50700;55.416;12.952;2023-04-06T08:58:56;5.78;;;2.50;;
64375;SDS011;50700;55.416;12.952;2023-04-06T09:01:25;2.40;;;1.83;;
64375;SDS011;50700;55.416;12.952;2023-04-06T09:03:53;4.00;;;2.25;;
64375;SDS011;50700;55.416;12.952;2023-04-06T09:06:21;3.25;;;2.33;;
64375;SDS011;50700;55.416;12.952;2023-04-06T09:08:47;6.05;;;2.45;;
64375;SDS011;50700;55.416;12.952;2023-04-06T09:11:14;5.40;;;2.33;;
64375;SDS011;50700;55.416;12.952;2023-04-06T09:13:44;8.85;;;2.70;;
64375;SDS011;50700;55.416;12.952;2023-04-06T09:16:10;6.57;;;2.97;;
64375;SDS011;50700;55.416;12.952;2023-04-06T09:18:37;5.32;;;2.95;;
64375;SDS011;50700;55.416;12.952;2023-04-06T09:21:04;6.18;;;3.15;;
64375;SDS011;50700;55.416;12.952;2023-04-06T09:23:30;4.80;;;2.88;;
64375;SDS011;50700;55.416;12.952;2023-04-06T09:26:04;5.20;;;3.58;;
64375;SDS011;50700;55.416;12.952;2023-04-06T09:28:40;6.15;;;2.88;;
64375;SDS011;50700;55.416;12.952;2023-04-06T09:31:07;8.73;;;4.25;;
64375;SDS011;50700;55.416;12.952;2023-04-06T09:33:37;6.15;;;3.50;;
64375;SDS011;50700;55.416;12.952;2023-04-06T09:36:04;6.25;;;3.47;;
64375;SDS011;50700;55.416;12.952;2023-04-06T09:38:30;7.38;;;3.92;;
64375;SDS011;50700;55.416;12.952;2023-04-06T09:40:56;7.95;;;4.72;;
64375;SDS011;50700;55.416;12.952;2023-04-06T09:43:28;10.63;;;5.72;;
64375;SDS011;50700;55.416;12.952;2023-04-06T09:45:55;11.65;;;6.00;;
64375;SDS011;50700;55.416;12.952;2023-04-06T09:48:23;10.30;;;5.75;;
64375;SDS011;50700;55.416;12.952;2023-04-06T09:50:52;11.82;;;6.05;;
64375;SDS011;50700;55.416;12.952;2023-04-06T09:53:23;9.65;;;6.53;;
64375;SDS011;50700;55.416;12.952;2023-04-06T09:55:52;9.13;;;5.00;;
64375;SDS011;50700;55.416;12.952;2023-04-06T09:58:22;11.85;;;5.75;;
64375;SDS011;50700;55.416;12.952;2023-04-06T10:01:09;9.90;;;5.45;;
64375;SDS011;50700;55.416;12.952;2023-04-06T10:04:37;9.38;;;5.65;;
64375;SDS011;50700;55.416;12.952;2023-04-06T10:06:33;11.98;;;5.60;;
64375;SDS011;50700;55.416;12.952;2023-04-06T10:09:01;8.15;;;5.00;;
64375;SDS011;50700;55.416;12.952;2023-04-06T10:11:28;9.65;;;5.00;;
64375;SDS011;50700;55.416;12.952;2023-04-06T10:13:55;16.83;;;5.85;;
64375;SDS011;50700;55.416;12.952;2023-04-06T10:16:22;10.45;;;6.18;;
64375;SDS011;50700;55.416;12.952;2023-04-06T10:18:52;9.77;;;5.55;;
64375;SDS011;50700;55.416;12.952;2023-04-06T10:21:21;10.35;;;5.72;;
64375;SDS011;50700;55.416;12.952;2023-04-06T10:23:59;9.05;;;5.30;;
64375;SDS011;50700;55.416;12.952;2023-04-06T10:26:26;14.95;;;6.05;;
64375;SDS011;50700;55.416;12.952;2023-04-06T10:28:52;11.52;;;6.28;;
64375;SDS011;50700;55.416;12.952;2023-04-06T10:31:25;9.57;;;5.00;;
64375;SDS011;50700;55.416;12.952;2023-04-06T10:33:59;8.68;;;5.70;;
64375;SDS011;50700;55.416;12.952;2023-04-06T10:36:31;8.98;;;6.00;;
64375;SDS011;50700;55.416;12.952;2023-04-06T10:38:59;9.18;;;6.32;;
64375;SDS011;50700;55.416;12.952;2023-04-06T10:44:21;10.02;;;5.40;;
64375;SDS011;50700;55.416;12.952;2023-04-06T10:46:58;8.18;;;5.50;;
64375;SDS011;50700;55.416;12.952;2023-04-06T10:49:27;10.43;;;5.60;;
64375;SDS011;50700;55.416;12.952;2023-04-06T10:51:53;11.38;;;5.32;;
64375;SDS011;50700;55.416;12.952;2023-04-06T10:54:23;10.50;;;5.70;;
64375;SDS011;50700;55.416;12.952;2023-04-06T10:56:50;8.60;;;5.63;;
64375;SDS011;50700;55.416;12.952;2023-04-06T10:59:22;11.77;;;6.00;;
64375;SDS011;50700;55.416;12.952;2023-04-06T11:01:50;10.98;;;5.03;;
64375;SDS011;50700;55.416;12.952;2023-04-06T11:04:16;10.75;;;5.20;;
64375;SDS011;50700;55.416;12.952;2023-04-06T11:06:46;10.20;;;4.68;;
64375;SDS011;50700;55.416;12.952;2023-04-06T11:09:23;9.27;;;4.40;;
64375;SDS011;50700;55.416;12.952;2023-04-06T11:11:50;8.63;;;4.75;;
64375;SDS011;50700;55.416;12.952;2023-04-06T11:14:16;9.18;;;4.82;;
64375;SDS011;50700;55.416;12.952;2023-04-06T11:16:42;8.30;;;5.38;;
64375;SDS011;50700;55.416;12.952;2023-04-06T11:19:13;9.20;;;5.07;;
64375;SDS011;50700;55.416;12.952;2023-04-06T11:21:40;11.18;;;5.88;;
64375;SDS011;50700;55.416;12.952;2023-04-06T11:24:09;10.82;;;6.65;;
64375;SDS011;50700;55.416;12.952;2023-04-06T11:29:05;18.95;;;6.80;;
64375;SDS011;50700;55.416;12.952;2023-04-06T11:31:37;13.00;;;6.57;;
64375;SDS011;50700;55.416;12.952;2023-04-06T11:34:08;14.52;;;7.00;;
64375;SDS011;50700;55.416;12.952;2023-04-06T11:36:35;11.07;;;6.30;;
64375;SDS011;50700;55.416;12.952;2023-04-06T11:39:02;11.02;;;6.63;;
64375;SDS011;50700;55.416;12.952;2023-04-06T11:41:29;9.70;;;6.13;;
64375;SDS011;50700;55.416;12.952;2023-04-06T11:43:55;13.23;;;6.60;;
64375;SDS011;50700;55.416;12.952;2023-04-06T11:46:21;12.98;;;7.93;;
64375;SDS011;50700;55.416;12.952;2023-04-06T11:48:47;11.98;;;7.20;;
64375;SDS011;50700;55.416;12.952;2023-04-06T11:51:21;12.90;;;6.85;;
64375;SDS011;50700;55.416;12.952;2023-04-06T11:53:51;15.43;;;6.75;;
64375;SDS011;50700;55.416;12.952;2023-04-06T11:56:27;14.10;;;7.28;;
64375;SDS011;50700;55.416;12.952;2023-04-06T11:58:55;11.05;;;7.28;;
64375;SDS011;50700;55.416;12.952;2023-04-06T12:01:21;17.77;;;7.45;;
64375;SDS011;50700;55.416;12.952;2023-04-06T12:03:47;15.30;;;7.45;;
64375;SDS011;50700;55.416;12.952;2023-04-06T12:06:14;24.95;;;7.47;;
64375;SDS011;50700;55.416;12.952;2023-04-06T12:08:41;13.15;;;6.53;;
64375;SDS011;50700;55.416;12.952;2023-04-06T12:11:07;16.38;;;7.45;;
64375;SDS011;50700;55.416;12.952;2023-04-06T12:13:33;14.60;;;6.43;;
64375;SDS011;50700;55.416;12.952;2023-04-06T12:15:59;13.32;;;7.20;;
64375;SDS011;50700;55.416;12.952;2023-04-06T12:18:26;12.32;;;7.13;;
64375;SDS011;50700;55.416;12.952;2023-04-06T12:20:52;11.95;;;6.82;;
64375;SDS011;50700;55.416;12.952;2023-04-06T12:23:21;13.75;;;6.20;;
64375;SDS011;50700;55.416;12.952;2023-04-06T12:25:47;11.48;;;7.05;;
64375;SDS011;50700;55.416;12.952;2023-04-06T12:28:14;13.15;;;7.30;;
64375;SDS011;50700;55.416;12.952;2023-04-06T12:30:40;11.85;;;6.95;;
64375;SDS011;50700;55.416;12.952;2023-04-06T12:33:06;13.85;;;7.05;;
64375;SDS011;50700;55.416;12.952;2023-04-06T12:35:36;14.77;;;7.07;;
64375;SDS011;50700;55.416;12.952;2023-04-06T12:38:03;10.65;;;6.28;;
64375;SDS011;50700;55.416;12.952;2023-04-06T12:40:30;12.55;;;6.57;;
64375;SDS011;50700;55.416;12.952;2023-04-06T12:42:56;12.18;;;6.85;;
64375;SDS011;50700;55.416;12.952;2023-04-06T12:45:22;13.68;;;7.00;;
64375;SDS011;50700;55.416;12.952;2023-04-06T12:47:48;10.52;;;7.05;;
64375;SDS011;50700;55.416;12.952;2023-04-06T12:50:15;12.80;;;6.95;;
64375;SDS011;50700;55.416;12.952;2023-04-06T12:52:41;12.70;;;6.85;;
64375;SDS011;50700;55.416;12.952;2023-04-06T12:55:07;14.75;;;7.07;;
64375;SDS011;50700;55.416;12.952;2023-04-06T12:57:33;10.32;;;7.05;;
64375;SDS011;50700;55.416;12.952;2023-04-06T13:00:00;13.23;;;6.55;;
64375;SDS011;50700;55.416;12.952;2023-04-06T13:02:26;14.25;;;7.10;;
64375;SDS011;50700;55.416;12.952;2023-04-06T13:04:52;12.07;;;6.97;;
64375;SDS011;50700;55.416;12.952;2023-04-06T13:07:18;11.82;;;7.05;;
64375;SDS011;50700;55.416;12.952;2023-04-06T13:09:45;12.40;;;6.88;;
64375;SDS011;50700;55.416;12.952;2023-04-06T13:12:12;10.13;;;6.85;;
64375;SDS011;50700;55.416;12.952;2023-04-06T13:14:38;16.40;;;7.93;;
64375;SDS011;50700;55.416;12.952;2023-04-06T13:17:05;10.93;;;7.25;;
64375;SDS011;50700;55.416;12.952;2023-04-06T13:19:31;16.25;;;8.57;;
64375;SDS011;50700;55.416;12.952;2023-04-06T13:21:58;15.00;;;7.60;;
64375;SDS011;50700;55.416;12.952;2023-04-06T13:24:24;12.88;;;7.75;;
64375;SDS011;50700;55.416;12.952;2023-04-06T13:26:50;10.73;;;6.90;;
64375;SDS011;50700;55.416;12.952;2023-04-06T13:29:16;13.93;;;7.22;;
64375;SDS011;50700;55.416;12.952;2023-04-06T13:31:42;16.30;;;8.43;;
64375;SDS011;50700;55.416;12.952;2023-04-06T13:34:09;16.30;;;7.63;;
64375;SDS011;50700;55.416;12.952;2023-04-06T13:36:35;16.13;;;7.70;;
64375;SDS011;50700;55.416;12.952;2023-04-06T13:39:02;12.68;;;7.45;;
64375;SDS011;50700;55.416;12.952;2023-04-06T13:41:28;14.80;;;7.35;;
64375;SDS011;50700;55.416;12.952;2023-04-06T13:43:54;17.40;;;7.75;;
64375;SDS011;50700;55.416;12.952;2023-04-06T13:46:23;13.80;;;8.15;;
64375;SDS011;50700;55.416;12.952;2023-04-06T13:48:50;14.05;;;7.90;;
64375;SDS011;50700;55.416;12.952;2023-04-06T13:51:16;12.18;;;6.82;;
64375;SDS011;50700;55.416;12.952;2023-04-06T13:53:42;13.82;;;7.45;;
64375;SDS011;50700;55.416;12.952;2023-04-06T13:56:08;14.88;;;7.28;;
64375;SDS011;50700;55.416;12.952;2023-04-06T13:58:35;11.48;;;6.80;;
64375;SDS011;50700;55.416;12.952;2023-04-06T14:01:04;17.30;;;8.40;;
64375;SDS011;50700;55.416;12.952;2023-04-06T14:03:31;17.08;;;7.65;;
64375;SDS011;50700;55.416;12.952;2023-04-06T14:05:58;13.57;;;7.82;;
64375;SDS011;50700;55.416;12.952;2023-04-06T14:08:25;13.88;;;6.68;;
64375;SDS011;50700;55.416;12.952;2023-04-06T14:10:51;16.83;;;7.93;;
64375;SDS011;50700;55.416;12.952;2023-04-06T14:13:19;12.65;;;7.85;;
64375;SDS011;50700;55.416;12.952;2023-04-06T14:15:45;13.68;;;7.05;;
64375;SDS011;50700;55.416;12.952;2023-04-06T14:18:12;11.63;;;7.38;;
64375;SDS011;50700;55.416;12.952;2023-04-06T14:20:38;12.68;;;7.55;;
64375;SDS011;50700;55.416;12.952;2023-04-06T14:23:04;15.00;;;8.30;;
64375;SDS011;50700;55.416;12.952;2023-04-06T14:25:30;13.10;;;7.90;;
64375;SDS011;50700;55.416;12.952;2023-04-06T14:27:57;13.63;;;8.02;;
64375;SDS011;50700;55.416;12.952;2023-04-06T14:30:23;14.07;;;8.00;;
64375;SDS011;50700;55.416;12.952;2023-04-06T14:32:49;15.57;;;8.38;;
64375;SDS011;50700;55.416;12.952;2023-04-06T14:35:15;16.23;;;8.02;;